sensor_id;sensor_type;location;lat;lon;timestamp;temperature;humidity
1025;DHT22;501;48.214;11.350;2023-12-07T02:31:11;0.90;56.00
1025;DHT22;501;48.214;11.350;2023-12-07T02:33:37;0.90;56.20
1025;DHT22;501;48.214;11.350;2023-12-07T02:36:03;0.80;56.80
1025;DHT22;501;48.214;11.350;2023-12-07T02:38:31;0.80;56.90
1025;DHT22;501;48.214;11.350;2023-12-07T03:12:14;0.80;57.60
1025;DHT22;501;48.214;11.350;2023-12-07T03:14:39;0.80;58.10
1025;DHT22;501;48.214;11.350;2023-12-07T03:17:05;0.80;58.40
1025;DHT22;501;48.214;11.350;2023-12-07T03:19:31;0.90;58.30
1025;DHT22;501;48.214;11.350;2023-12-07T03:32:21;0.90;54.30
1025;DHT22;501;48.214;11.350;2023-12-07T03:34:47;0.90;54.40
1025;DHT22;501;48.214;11.350;2023-12-07T03:37:13;0.90;54.30
1025;DHT22;501;48.214;11.350;2023-12-07T03:39:39;0.90;53.90
1025;DHT22;501;48.214;11.350;2023-12-07T03:42:05;0.90;53.80
1025;DHT22;501;48.214;11.350;2023-12-07T03:44:34;0.90;53.70
1025;DHT22;501;48.214;11.350;2023-12-07T03:47:00;0.90;53.40
1025;DHT22;501;48.214;11.350;2023-12-07T03:49:28;0.90;52.80
1025;DHT22;501;48.214;11.350;2023-12-07T03:51:54;0.90;52.60
1025;DHT22;501;48.214;11.350;2023-12-07T03:54:20;0.80;52.30
1025;DHT22;501;48.214;11.350;2023-12-07T03:56:46;0.80;52.20
1025;DHT22;501;48.214;11.350;2023-12-07T03:59:12;0.80;51.80
1025;DHT22;501;48.214;11.350;2023-12-07T04:01:38;0.80;51.40
1025;DHT22;501;48.214;11.350;2023-12-07T04:04:04;0.80;50.80
1025;DHT22;501;48.214;11.350;2023-12-07T04:06:30;0.80;50.80
1025;DHT22;501;48.214;11.350;2023-12-07T04:08:56;0.70;51.10
1025;DHT22;501;48.214;11.350;2023-12-07T04:11:22;0.70;51.60
1025;DHT22;501;48.214;11.350;2023-12-07T04:13:48;0.60;52.40
1025;DHT22;501;48.214;11.350;2023-12-07T04:16:14;0.60;52.10
1025;DHT22;501;48.214;11.350;2023-12-07T04:18:40;0.50;52.10
1025;DHT22;501;48.214;11.350;2023-12-07T04:21:06;0.50;52.00
1025;DHT22;501;48.214;11.350;2023-12-07T04:23:33;0.50;51.40
1025;DHT22;501;48.214;11.350;2023-12-07T04:25:58;0.50;51.30
1025;DHT22;501;48.214;11.350;2023-12-07T04:28:25;0.50;50.80
1025;DHT22;501;48.214;11.350;2023-12-07T04:30:50;0.50;50.50
1025;DHT22;501;48.214;11.350;2023-12-07T04:33:16;0.40;50.40
1025;DHT22;501;48.214;11.350;2023-12-07T04:35:42;0.40;50.40
1025;DHT22;501;48.214;11.350;2023-12-07T04:38:08;0.40;50.40
1025;DHT22;501;48.214;11.350;2023-12-07T04:40:34;0.40;50.40
1025;DHT22;501;48.214;11.350;2023-12-07T04:43:00;0.40;50.00
1025;DHT22;501;48.214;11.350;2023-12-07T04:45:25;0.40;50.10
1025;DHT22;501;48.214;11.350;2023-12-07T04:47:51;0.30;50.00
1025;DHT22;501;48.214;11.350;2023-12-07T04:50:17;0.30;49.60
1025;DHT22;501;48.214;11.350;2023-12-07T04:52:43;0.30;49.30
1025;DHT22;501;48.214;11.350;2023-12-07T04:55:09;0.20;49.20
1025;DHT22;501;48.214;11.350;2023-12-07T04:57:35;0.20;49.00
1025;DHT22;501;48.214;11.350;2023-12-07T05:00:03;0.20;49.00
1025;DHT22;501;48.214;11.350;2023-12-07T05:02:31;0.20;49.40
1025;DHT22;501;48.214;11.350;2023-12-07T05:04:58;0.20;49.30
1025;DHT22;501;48.214;11.350;2023-12-07T05:07:24;0.20;49.40
1025;DHT22;501;48.214;11.350;2023-12-07T05:09:50;0.20;49.30
1025;DHT22;501;48.214;11.350;2023-12-07T05:12:19;0.20;48.80
1025;DHT22;501;48.214;11.350;2023-12-07T05:14:45;0.10;48.20
1025;DHT22;501;48.214;11.350;2023-12-07T05:17:10;0.10;47.80
1025;DHT22;501;48.214;11.350;2023-12-07T05:19:36;0.10;47.80
1025;DHT22;501;48.214;11.350;2023-12-07T05:22:02;0.10;47.40
1025;DHT22;501;48.214;11.350;2023-12-07T05:24:29;0.00;47.40
1025;DHT22;501;48.214;11.350;2023-12-07T05:26:57;0.00;47.40
1025;DHT22;501;48.214;11.350;2023-12-07T05:29:22;0.00;47.40
1025;DHT22;501;48.214;11.350;2023-12-07T05:31:49;-0.10;47.40
1025;DHT22;501;48.214;11.350;2023-12-07T05:34:17;-0.10;47.30
1025;DHT22;501;48.214;11.350;2023-12-07T05:36:43;-0.10;46.90
1025;DHT22;501;48.214;11.350;2023-12-07T05:39:09;-0.10;46.80
1025;DHT22;501;48.214;11.350;2023-12-07T05:41:34;-0.20;46.80
1025;DHT22;501;48.214;11.350;2023-12-07T05:44:00;-0.20;46.70
1025;DHT22;501;48.214;11.350;2023-12-07T05:46:26;-0.20;46.50
1025;DHT22;501;48.214;11.350;2023-12-07T05:48:52;-0.20;46.50
1025;DHT22;501;48.214;11.350;2023-12-07T05:51:17;-0.20;46.70
1025;DHT22;501;48.214;11.350;2023-12-07T05:53:44;-0.30;46.70
1025;DHT22;501;48.214;11.350;2023-12-07T05:56:10;-0.30;46.90
1025;DHT22;501;48.214;11.350;2023-12-07T05:58:36;-0.30;46.90
1025;DHT22;501;48.214;11.350;2023-12-07T06:01:02;-0.30;47.10
1025;DHT22;501;48.214;11.350;2023-12-07T06:03:28;-0.40;47.50
1025;DHT22;501;48.214;11.350;2023-12-07T06:05:54;-0.50;47.90
1025;DHT22;501;48.214;11.350;2023-12-07T06:08:21;-0.50;47.80
1025;DHT22;501;48.214;11.350;2023-12-07T06:10:47;-0.50;47.60
1025;DHT22;501;48.214;11.350;2023-12-07T06:13:15;-0.50;47.50
1025;DHT22;501;48.214;11.350;2023-12-07T06:15:41;-0.50;47.00
1025;DHT22;501;48.214;11.350;2023-12-07T06:18:07;-0.50;46.20
1025;DHT22;501;48.214;11.350;2023-12-07T06:20:33;-0.50;46.30
1025;DHT22;501;48.214;11.350;2023-12-07T06:23:00;-0.60;46.00
1025;DHT22;501;48.214;11.350;2023-12-07T06:25:27;-0.60;46.20
1025;DHT22;501;48.214;11.350;2023-12-07T06:27:53;-0.60;46.00
1025;DHT22;501;48.214;11.350;2023-12-07T06:30:18;-0.70;45.30
1025;DHT22;501;48.214;11.350;2023-12-07T06:32:44;-0.60;45.20
1025;DHT22;501;48.214;11.350;2023-12-07T06:35:13;-0.60;44.90
1025;DHT22;501;48.214;11.350;2023-12-07T06:37:38;-0.60;44.70
1025;DHT22;501;48.214;11.350;2023-12-07T06:40:08;-0.70;44.20
1025;DHT22;501;48.214;11.350;2023-12-07T06:42:35;-0.70;44.20
1025;DHT22;501;48.214;11.350;2023-12-07T06:45:01;-0.70;44.30
1025;DHT22;501;48.214;11.350;2023-12-07T06:47:27;-0.70;44.30
1025;DHT22;501;48.214;11.350;2023-12-07T06:49:53;-0.70;44.60
1025;DHT22;501;48.214;11.350;2023-12-07T06:52:21;-0.80;44.70
1025;DHT22;501;48.214;11.350;2023-12-07T06:54:47;-0.80;44.70
1025;DHT22;501;48.214;11.350;2023-12-07T06:57:13;-0.80;44.70
1025;DHT22;501;48.214;11.350;2023-12-07T06:59:38;-0.80;44.70
1025;DHT22;501;48.214;11.350;2023-12-07T07:02:06;-0.80;44.70
1025;DHT22;501;48.214;11.350;2023-12-07T07:04:32;-0.80;44.80
1025;DHT22;501;48.214;11.350;2023-12-07T07:06:57;-0.80;44.90
1025;DHT22;501;48.214;11.350;2023-12-07T07:09:23;-0.80;44.70
1025;DHT22;501;48.214;11.350;2023-12-07T07:11:49;-0.80;45.00
1025;DHT22;501;48.214;11.350;2023-12-07T07:14:14;-0.80;45.80
1025;DHT22;501;48.214;11.350;2023-12-07T07:16:41;-0.80;45.80
1025;DHT22;501;48.214;11.350;2023-12-07T07:19:06;-0.80;45.60
1025;DHT22;501;48.214;11.350;2023-12-07T07:21:32;-0.80;45.60
1025;DHT22;501;48.214;11.350;2023-12-07T07:23:58;-0.80;45.80
1025;DHT22;501;48.214;11.350;2023-12-07T07:26:23;-0.80;45.90
1025;DHT22;501;48.214;11.350;2023-12-07T07:28:52;-0.80;45.80
1025;DHT22;501;48.214;11.350;2023-12-07T07:31:18;-0.80;45.70
1025;DHT22;501;48.214;11.350;2023-12-07T07:33:44;-0.70;46.30
1025;DHT22;501;48.214;11.350;2023-12-07T07:36:09;-0.70;45.50
1025;DHT22;501;48.214;11.350;2023-12-07T07:38:36;-0.70;45.00
1025;DHT22;501;48.214;11.350;2023-12-07T07:41:02;-0.70;44.80
1025;DHT22;501;48.214;11.350;2023-12-07T07:43:28;-0.70;44.60
1025;DHT22;501;48.214;11.350;2023-12-07T07:45:53;-0.70;44.70
1025;DHT22;501;48.214;11.350;2023-12-07T07:48:19;-0.70;44.80
1025;DHT22;501;48.214;11.350;2023-12-07T07:50:44;-0.60;45.00
1025;DHT22;501;48.214;11.350;2023-12-07T07:53:11;-0.60;44.80
1025;DHT22;501;48.214;11.350;2023-12-07T07:55:36;-0.60;44.70
1025;DHT22;501;48.214;11.350;2023-12-07T07:58:02;-0.60;44.70
1025;DHT22;501;48.214;11.350;2023-12-07T08:00:28;-0.50;45.00
1025;DHT22;501;48.214;11.350;2023-12-07T08:02:53;-0.50;45.40
1025;DHT22;501;48.214;11.350;2023-12-07T08:05:19;-0.50;45.90
1025;DHT22;501;48.214;11.350;2023-12-07T08:07:48;-0.40;46.40
1025;DHT22;501;48.214;11.350;2023-12-07T08:10:13;-0.40;46.40
1025;DHT22;501;48.214;11.350;2023-12-07T08:12:39;-0.30;46.10
1025;DHT22;501;48.214;11.350;2023-12-07T08:15:06;-0.30;46.00
1025;DHT22;501;48.214;11.350;2023-12-07T08:17:37;-0.20;46.10
1025;DHT22;501;48.214;11.350;2023-12-07T08:20:03;-0.20;46.40
1025;DHT22;501;48.214;11.350;2023-12-07T08:22:29;-0.20;46.70
1025;DHT22;501;48.214;11.350;2023-12-07T08:24:55;-0.10;47.00
1025;DHT22;501;48.214;11.350;2023-12-07T08:27:21;-0.10;47.10
1025;DHT22;501;48.214;11.350;2023-12-07T08:29:47;0.00;47.20
1025;DHT22;501;48.214;11.350;2023-12-07T08:32:12;0.00;47.30
1025;DHT22;501;48.214;11.350;2023-12-07T08:34:39;0.10;47.60
1025;DHT22;501;48.214;11.350;2023-12-07T08:37:08;0.10;47.80
1025;DHT22;501;48.214;11.350;2023-12-07T08:39:34;0.20;48.00
1025;DHT22;501;48.214;11.350;2023-12-07T08:41:59;0.20;48.10
1025;DHT22;501;48.214;11.350;2023-12-07T08:44:26;0.30;48.10
1025;DHT22;501;48.214;11.350;2023-12-07T08:46:52;0.40;48.20
1025;DHT22;501;48.214;11.350;2023-12-07T08:49:17;0.40;48.00
1025;DHT22;501;48.214;11.350;2023-12-07T08:51:44;0.50;47.90
1025;DHT22;501;48.214;11.350;2023-12-07T08:54:10;0.50;48.00
1025;DHT22;501;48.214;11.350;2023-12-07T08:56:36;0.60;48.10
1025;DHT22;501;48.214;11.350;2023-12-07T08:59:02;0.60;48.00
1025;DHT22;501;48.214;11.350;2023-12-07T09:01:27;0.70;48.10
1025;DHT22;501;48.214;11.350;2023-12-07T09:03:53;0.70;47.90
1025;DHT22;501;48.214;11.350;2023-12-07T09:06:21;0.80;47.80
1025;DHT22;501;48.214;11.350;2023-12-07T09:08:47;0.80;47.70
1025;DHT22;501;48.214;11.350;2023-12-07T09:11:12;0.90;47.80
1025;DHT22;501;48.214;11.350;2023-12-07T09:13:38;0.90;47.80
1025;DHT22;501;48.214;11.350;2023-12-07T09:16:04;1.00;47.60
1025;DHT22;501;48.214;11.350;2023-12-07T09:18:30;1.00;47.30
1025;DHT22;501;48.214;11.350;2023-12-07T09:20:55;1.10;47.10
1025;DHT22;501;48.214;11.350;2023-12-07T09:23:21;1.10;46.80
1025;DHT22;501;48.214;11.350;2023-12-07T09:25:47;1.20;46.80
1025;DHT22;501;48.214;11.350;2023-12-07T09:28:12;1.20;46.80
1025;DHT22;501;48.214;11.350;2023-12-07T09:30:38;1.30;46.80
1025;DHT22;501;48.214;11.350;2023-12-07T09:33:03;1.30;46.30
1025;DHT22;501;48.214;11.350;2023-12-07T09:35:29;1.40;46.00
1025;DHT22;501;48.214;11.350;2023-12-07T09:37:55;1.40;45.60
1025;DHT22;501;48.214;11.350;2023-12-07T09:40:22;1.50;45.60
1025;DHT22;501;48.214;11.350;2023-12-07T09:42:49;1.50;45.50
1025;DHT22;501;48.214;11.350;2023-12-07T09:45:15;1.60;45.30
1025;DHT22;501;48.214;11.350;2023-12-07T09:47:42;1.60;44.90
1025;DHT22;501;48.214;11.350;2023-12-07T09:50:09;1.70;45.00
1025;DHT22;501;48.214;11.350;2023-12-07T09:52:35;1.70;45.10
1025;DHT22;501;48.214;11.350;2023-12-07T09:55:03;1.80;45.00
1025;DHT22;501;48.214;11.350;2023-12-07T09:57:29;1.80;44.90
1025;DHT22;501;48.214;11.350;2023-12-07T09:59:58;1.90;44.90
1025;DHT22;501;48.214;11.350;2023-12-07T10:02:24;1.90;44.80
1025;DHT22;501;48.214;11.350;2023-12-07T10:05:07;1.90;43.80
1025;DHT22;501;48.214;11.350;2023-12-07T10:07:36;2.00;43.20
1025;DHT22;501;48.214;11.350;2023-12-07T10:10:04;2.00;42.50
1025;DHT22;501;48.214;11.350;2023-12-07T10:12:34;2.10;42.20
1025;DHT22;501;48.214;11.350;2023-12-07T10:15:00;2.10;41.80
1025;DHT22;501;48.214;11.350;2023-12-07T10:17:51;2.20;41.40
1025;DHT22;501;48.214;11.350;2023-12-07T10:20:25;2.20;40.80
1025;DHT22;501;48.214;11.350;2023-12-07T10:23:12;2.20;40.20
1025;DHT22;501;48.214;11.350;2023-12-07T10:25:40;2.30;40.30
1025;DHT22;501;48.214;11.350;2023-12-07T10:28:09;2.30;39.70
1025;DHT22;501;48.214;11.350;2023-12-07T10:30:37;2.40;39.10
1025;DHT22;501;48.214;11.350;2023-12-07T10:33:05;2.40;38.60
1025;DHT22;501;48.214;11.350;2023-12-07T10:35:32;2.50;39.00
1025;DHT22;501;48.214;11.350;2023-12-07T10:37:58;2.50;37.90
1025;DHT22;501;48.214;11.350;2023-12-07T10:40:25;2.60;37.30
1025;DHT22;501;48.214;11.350;2023-12-07T10:42:57;2.50;37.30
1025;DHT22;501;48.214;11.350;2023-12-07T10:45:24;2.60;36.50
1025;DHT22;501;48.214;11.350;2023-12-07T10:47:53;2.70;35.00
1025;DHT22;501;48.214;11.350;2023-12-07T10:50:26;2.70;35.00
1025;DHT22;501;48.214;11.350;2023-12-07T10:52:59;2.70;34.20
1025;DHT22;501;48.214;11.350;2023-12-07T10:55:29;2.80;33.80
1025;DHT22;501;48.214;11.350;2023-12-07T10:58:00;2.80;32.80
1025;DHT22;501;48.214;11.350;2023-12-07T11:00:27;2.90;32.70
1025;DHT22;501;48.214;11.350;2023-12-07T11:02:53;2.90;30.60
1025;DHT22;501;48.214;11.350;2023-12-07T11:05:21;2.90;30.30
1025;DHT22;501;48.214;11.350;2023-12-07T11:07:59;3.00;30.60
1025;DHT22;501;48.214;11.350;2023-12-07T11:10:39;3.10;30.30
1025;DHT22;501;48.214;11.350;2023-12-07T11:13:29;3.10;30.80
1025;DHT22;501;48.214;11.350;2023-12-07T11:15:57;3.10;30.20
1025;DHT22;501;48.214;11.350;2023-12-07T11:18:25;3.20;30.00
1025;DHT22;501;48.214;11.350;2023-12-07T11:20:53;3.20;29.70
1025;DHT22;501;48.214;11.350;2023-12-07T11:23:20;3.30;29.30
1025;DHT22;501;48.214;11.350;2023-12-07T11:25:47;3.30;28.60
1025;DHT22;501;48.214;11.350;2023-12-07T11:28:13;3.30;28.50
1025;DHT22;501;48.214;11.350;2023-12-07T11:30:44;3.40;28.40
1025;DHT22;501;48.214;11.350;2023-12-07T11:33:10;3.40;28.00
1025;DHT22;501;48.214;11.350;2023-12-07T11:38:28;3.50;28.20
1025;DHT22;501;48.214;11.350;2023-12-07T11:40:54;3.50;26.60
1025;DHT22;501;48.214;11.350;2023-12-07T11:46:04;3.60;26.70
1025;DHT22;501;48.214;11.350;2023-12-07T11:48:29;3.60;27.50
1025;DHT22;501;48.214;11.350;2023-12-07T11:53:28;3.70;26.70
1025;DHT22;501;48.214;11.350;2023-12-07T11:55:58;3.70;26.70
1025;DHT22;501;48.214;11.350;2023-12-07T11:58:28;3.80;27.60
1025;DHT22;501;48.214;11.350;2023-12-07T12:01:10;3.80;28.90
1025;DHT22;501;48.214;11.350;2023-12-07T12:03:36;3.80;29.50
1025;DHT22;501;48.214;11.350;2023-12-07T12:06:04;3.90;29.20
1025;DHT22;501;48.214;11.350;2023-12-07T12:08:31;3.90;28.20
1025;DHT22;501;48.214;11.350;2023-12-07T12:10:57;3.90;27.70
1025;DHT22;501;48.214;11.350;2023-12-07T12:13:32;3.80;27.60
1025;DHT22;501;48.214;11.350;2023-12-07T12:15:58;3.90;27.70
1025;DHT22;501;48.214;11.350;2023-12-07T12:18:24;4.00;28.00
1025;DHT22;501;48.214;11.350;2023-12-07T12:20:53;3.90;28.20
1025;DHT22;501;48.214;11.350;2023-12-07T12:23:20;4.00;29.00
1025;DHT22;501;48.214;11.350;2023-12-07T12:25:46;4.00;29.20
1025;DHT22;501;48.214;11.350;2023-12-07T12:28:15;4.00;28.30
1025;DHT22;501;48.214;11.350;2023-12-07T12:30:44;4.00;28.80
1025;DHT22;501;48.214;11.350;2023-12-07T12:33:10;4.10;29.20
1025;DHT22;501;48.214;11.350;2023-12-07T12:35:37;4.10;28.50
1025;DHT22;501;48.214;11.350;2023-12-07T12:38:09;4.20;28.20
1025;DHT22;501;48.214;11.350;2023-12-07T12:40:36;4.30;28.80
1025;DHT22;501;48.214;11.350;2023-12-07T12:43:02;4.40;29.40
1025;DHT22;501;48.214;11.350;2023-12-07T12:45:27;4.60;28.50
1025;DHT22;501;48.214;11.350;2023-12-07T12:47:54;4.80;29.40
1025;DHT22;501;48.214;11.350;2023-12-07T12:50:37;5.10;29.90
1025;DHT22;501;48.214;11.350;2023-12-07T12:53:05;5.40;30.10
1025;DHT22;501;48.214;11.350;2023-12-07T12:55:38;5.90;29.00
1025;DHT22;501;48.214;11.350;2023-12-07T12:58:08;7.80;28.60
1025;DHT22;501;48.214;11.350;2023-12-07T13:00:39;10.70;24.10
1025;DHT22;501;48.214;11.350;2023-12-07T13:03:05;13.30;20.70
1025;DHT22;501;48.214;11.350;2023-12-07T13:05:32;15.50;17.70
1025;DHT22;501;48.214;11.350;2023-12-07T13:07:59;17.10;16.10
1025;DHT22;501;48.214;11.350;2023-12-07T13:10:26;17.30;14.50
1025;DHT22;501;48.214;11.350;2023-12-07T13:12:51;16.20;14.40
1025;DHT22;501;48.214;11.350;2023-12-07T13:15:17;14.70;14.40
1025;DHT22;501;48.214;11.350;2023-12-07T13:17:43;13.20;15.20
1025;DHT22;501;48.214;11.350;2023-12-07T13:20:09;11.90;16.10
1025;DHT22;501;48.214;11.350;2023-12-07T13:22:37;10.70;17.10
1025;DHT22;501;48.214;11.350;2023-12-07T13:25:03;9.80;18.70
1025;DHT22;501;48.214;11.350;2023-12-07T13:27:29;9.00;19.50
1025;DHT22;501;48.214;11.350;2023-12-07T13:29:54;8.30;20.20
1025;DHT22;501;48.214;11.350;2023-12-07T13:32:20;7.70;20.60
1025;DHT22;501;48.214;11.350;2023-12-07T13:34:46;6.90;21.60
1025;DHT22;501;48.214;11.350;2023-12-07T13:37:11;6.40;22.70
1025;DHT22;501;48.214;11.350;2023-12-07T13:39:40;5.90;23.10
1025;DHT22;501;48.214;11.350;2023-12-07T13:42:11;5.60;23.50
1025;DHT22;501;48.214;11.350;2023-12-07T13:44:37;5.30;24.20
1025;DHT22;501;48.214;11.350;2023-12-07T13:47:03;5.10;25.00
1025;DHT22;501;48.214;11.350;2023-12-07T13:49:29;5.00;25.50
1025;DHT22;501;48.214;11.350;2023-12-07T13:51:54;4.70;25.80
1025;DHT22;501;48.214;11.350;2023-12-07T13:54:20;4.60;26.20
1025;DHT22;501;48.214;11.350;2023-12-07T13:56:48;4.50;26.70
1025;DHT22;501;48.214;11.350;2023-12-07T13:59:13;4.30;27.10
1025;DHT22;501;48.214;11.350;2023-12-07T14:01:39;4.20;27.80
1025;DHT22;501;48.214;11.350;2023-12-07T14:04:08;4.00;27.70
1025;DHT22;501;48.214;11.350;2023-12-07T14:06:34;3.80;28.40
1025;DHT22;501;48.214;11.350;2023-12-07T14:09:01;3.80;28.80
1025;DHT22;501;48.214;11.350;2023-12-07T14:11:28;3.80;29.20
1025;DHT22;501;48.214;11.350;2023-12-07T14:13:53;3.70;29.50
1025;DHT22;501;48.214;11.350;2023-12-07T14:16:21;3.60;29.60
1025;DHT22;501;48.214;11.350;2023-12-07T14:18:47;3.60;30.00
1025;DHT22;501;48.214;11.350;2023-12-07T14:21:13;3.40;30.10
1025;DHT22;501;48.214;11.350;2023-12-07T14:23:40;3.40;30.50
1025;DHT22;501;48.214;11.350;2023-12-07T14:26:05;3.40;30.90
1025;DHT22;501;48.214;11.350;2023-12-07T14:28:31;3.30;31.00
1025;DHT22;501;48.214;11.350;2023-12-07T14:30:59;3.30;31.30
1025;DHT22;501;48.214;11.350;2023-12-07T14:33:25;3.20;31.40
1025;DHT22;501;48.214;11.350;2023-12-07T14:35:50;3.10;31.50
1025;DHT22;501;48.214;11.350;2023-12-07T14:38:16;3.10;31.60
1025;DHT22;501;48.214;11.350;2023-12-07T14:40:42;3.10;31.80
1025;DHT22;501;48.214;11.350;2023-12-07T14:43:07;3.10;32.30
1025;DHT22;501;48.214;11.350;2023-12-07T14:45:33;3.10;31.90
1025;DHT22;501;48.214;11.350;2023-12-07T14:47:59;3.10;31.50
1025;DHT22;501;48.214;11.350;2023-12-07T14:50:28;3.10;31.70
1025;DHT22;501;48.214;11.350;2023-12-07T14:52:53;3.00;32.00
1025;DHT22;501;48.214;11.350;2023-12-07T14:55:19;3.00;31.60
1025;DHT22;501;48.214;11.350;2023-12-07T14:57:45;3.00;31.80
1025;DHT22;501;48.214;11.350;2023-12-07T15:00:11;2.90;32.20
1025;DHT22;501;48.214;11.350;2023-12-07T15:02:37;2.90;32.60
1025;DHT22;501;48.214;11.350;2023-12-07T15:05:03;2.80;32.90
1025;DHT22;501;48.214;11.350;2023-12-07T15:07:30;2.70;33.30
1025;DHT22;501;48.214;11.350;2023-12-07T15:09:55;2.70;32.70
1025;DHT22;501;48.214;11.350;2023-12-07T15:12:21;2.60;32.60
1025;DHT22;501;48.214;11.350;2023-12-07T15:14:47;2.50;33.10
1025;DHT22;501;48.214;11.350;2023-12-07T15:17:12;2.40;33.50
1025;DHT22;501;48.214;11.350;2023-12-07T15:19:38;2.40;34.00
1025;DHT22;501;48.214;11.350;2023-12-07T15:22:04;2.30;34.60
1025;DHT22;501;48.214;11.350;2023-12-07T15:24:32;2.20;34.50
1025;DHT22;501;48.214;11.350;2023-12-07T15:26:57;2.20;34.50
1025;DHT22;501;48.214;11.350;2023-12-07T15:29:24;2.10;34.50
1025;DHT22;501;48.214;11.350;2023-12-07T15:31:50;2.10;33.40
1025;DHT22;501;48.214;11.350;2023-12-07T15:34:15;2.00;33.00
1025;DHT22;501;48.214;11.350;2023-12-07T15:36:41;2.00;34.40
1025;DHT22;501;48.214;11.350;2023-12-07T15:39:07;1.90;34.40
1025;DHT22;501;48.214;11.350;2023-12-07T15:41:34;1.90;34.50
1025;DHT22;501;48.214;11.350;2023-12-07T15:44:00;1.90;34.30
1025;DHT22;501;48.214;11.350;2023-12-07T15:46:26;1.80;33.80
1025;DHT22;501;48.214;11.350;2023-12-07T15:48:51;1.70;34.10
1025;DHT22;501;48.214;11.350;2023-12-07T15:51:17;1.60;34.00
1025;DHT22;501;48.214;11.350;2023-12-07T15:53:42;1.50;33.90
1025;DHT22;501;48.214;11.350;2023-12-07T15:56:08;1.50;34.30
1025;DHT22;501;48.214;11.350;2023-12-07T15:58:34;1.40;34.30
1025;DHT22;501;48.214;11.350;2023-12-07T16:00:59;1.40;34.80
1025;DHT22;501;48.214;11.350;2023-12-07T16:03:25;1.40;35.20
1025;DHT22;501;48.214;11.350;2023-12-07T16:05:51;1.30;35.50
1025;DHT22;501;48.214;11.350;2023-12-07T16:08:17;1.30;35.80
1025;DHT22;501;48.214;11.350;2023-12-07T16:10:42;1.30;36.10
1025;DHT22;501;48.214;11.350;2023-12-07T16:13:08;1.30;35.70
1025;DHT22;501;48.214;11.350;2023-12-07T16:15:35;1.20;35.90
1025;DHT22;501;48.214;11.350;2023-12-07T16:18:01;1.20;36.00
1025;DHT22;501;48.214;11.350;2023-12-07T16:20:27;1.20;35.70
1025;DHT22;501;48.214;11.350;2023-12-07T16:38:39;0.90;36.20
1025;DHT22;501;48.214;11.350;2023-12-07T16:56:56;0.70;36.70
1025;DHT22;501;48.214;11.350;2023-12-07T16:59:22;0.70;37.10
1025;DHT22;501;48.214;11.350;2023-12-07T17:17:20;0.30;38.00
1025;DHT22;501;48.214;11.350;2023-12-07T17:19:47;0.20;38.00
1025;DHT22;501;48.214;11.350;2023-12-07T17:24:52;0.20;38.20
1025;DHT22;501;48.214;11.350;2023-12-07T17:27:19;0.20;38.10
1025;DHT22;501;48.214;11.350;2023-12-07T17:29:45;0.20;38.00
1025;DHT22;501;48.214;11.350;2023-12-07T17:34:45;0.10;37.70
1025;DHT22;501;48.214;11.350;2023-12-07T17:37:13;0.10;37.80
1025;DHT22;501;48.214;11.350;2023-12-07T17:39:39;0.00;37.80
1025;DHT22;501;48.214;11.350;2023-12-07T17:44:41;-0.10;37.90
1025;DHT22;501;48.214;11.350;2023-12-07T17:47:07;-0.20;38.30
1025;DHT22;501;48.214;11.350;2023-12-07T17:49:32;-0.30;38.60
1025;DHT22;501;48.214;11.350;2023-12-07T17:54:29;-0.40;38.70
1025;DHT22;501;48.214;11.350;2023-12-07T17:56:57;-0.40;39.10
1025;DHT22;501;48.214;11.350;2023-12-07T17:59:23;-0.40;39.20
1025;DHT22;501;48.214;11.350;2023-12-07T18:01:49;-0.50;38.90
1025;DHT22;501;48.214;11.350;2023-12-07T18:04:15;-0.50;38.90
1025;DHT22;501;48.214;11.350;2023-12-07T18:06:42;-0.50;38.50
1025;DHT22;501;48.214;11.350;2023-12-07T18:09:08;-0.50;38.80
1025;DHT22;501;48.214;11.350;2023-12-07T18:16:48;-0.60;39.00
1025;DHT22;501;48.214;11.350;2023-12-07T18:19:14;-0.70;39.40
1025;DHT22;501;48.214;11.350;2023-12-07T18:24:16;-0.60;40.00
1025;DHT22;501;48.214;11.350;2023-12-07T18:26:42;-0.60;39.70
1025;DHT22;501;48.214;11.350;2023-12-07T18:29:09;-0.60;39.80
1025;DHT22;501;48.214;11.350;2023-12-07T18:34:12;-0.50;39.80
1025;DHT22;501;48.214;11.350;2023-12-07T18:36:38;-0.50;39.50
1025;DHT22;501;48.214;11.350;2023-12-07T18:39:03;-0.50;39.70
1025;DHT22;501;48.214;11.350;2023-12-07T18:44:00;-0.50;39.70
1025;DHT22;501;48.214;11.350;2023-12-07T18:46:28;-0.50;39.60
1025;DHT22;501;48.214;11.350;2023-12-07T18:48:55;-0.60;39.70
1025;DHT22;501;48.214;11.350;2023-12-07T18:51:20;-0.60;40.30
1025;DHT22;501;48.214;11.350;2023-12-07T18:53:46;-0.70;40.60
1025;DHT22;501;48.214;11.350;2023-12-07T18:56:12;-0.70;40.50
1025;DHT22;501;48.214;11.350;2023-12-07T18:58:38;-0.70;40.90
1025;DHT22;501;48.214;11.350;2023-12-07T19:03:38;-0.70;40.90
1025;DHT22;501;48.214;11.350;2023-12-07T19:06:06;-0.80;40.80
1025;DHT22;501;48.214;11.350;2023-12-07T19:08:32;-0.80;40.80
1025;DHT22;501;48.214;11.350;2023-12-07T19:10:57;-0.70;40.90
1025;DHT22;501;48.214;11.350;2023-12-07T19:13:23;-0.70;40.90
1025;DHT22;501;48.214;11.350;2023-12-07T19:15:49;-0.70;40.90
1025;DHT22;501;48.214;11.350;2023-12-07T19:18:21;-0.70;40.80
1025;DHT22;501;48.214;11.350;2023-12-07T19:20:47;-0.70;39.50
1025;DHT22;501;48.214;11.350;2023-12-07T19:25:42;-0.70;39.20
1025;DHT22;501;48.214;11.350;2023-12-07T19:28:08;-0.70;39.80
1025;DHT22;501;48.214;11.350;2023-12-07T19:30:35;-0.70;40.20
1025;DHT22;501;48.214;11.350;2023-12-07T19:33:02;-0.70;40.90
1025;DHT22;501;48.214;11.350;2023-12-07T19:35:29;-0.90;40.80
1025;DHT22;501;48.214;11.350;2023-12-07T19:37:54;-0.90;40.80
1025;DHT22;501;48.214;11.350;2023-12-07T19:40:21;-1.00;41.00
1025;DHT22;501;48.214;11.350;2023-12-07T19:42:47;-1.10;41.20
1025;DHT22;501;48.214;11.350;2023-12-07T19:45:14;-1.10;41.30
1025;DHT22;501;48.214;11.350;2023-12-07T19:47:39;-1.10;41.50
1025;DHT22;501;48.214;11.350;2023-12-07T19:50:05;-1.10;41.60
1025;DHT22;501;48.214;11.350;2023-12-07T19:52:34;-1.10;41.70
1025;DHT22;501;48.214;11.350;2023-12-07T19:55:00;-1.20;41.70
1025;DHT22;501;48.214;11.350;2023-12-07T19:57:40;-1.20;41.90
1025;DHT22;501;48.214;11.350;2023-12-07T20:00:09;-1.20;41.80
1025;DHT22;501;48.214;11.350;2023-12-07T20:02:38;-1.20;40.90
1025;DHT22;501;48.214;11.350;2023-12-07T20:05:04;-1.10;40.80
1025;DHT22;501;48.214;11.350;2023-12-07T20:07:30;-1.20;41.10
1025;DHT22;501;48.214;11.350;2023-12-07T20:09:56;-1.20;41.80
1025;DHT22;501;48.214;11.350;2023-12-07T20:12:21;-1.30;42.90
1025;DHT22;501;48.214;11.350;2023-12-07T20:14:47;-1.30;44.10
1025;DHT22;501;48.214;11.350;2023-12-07T20:17:12;-1.30;43.70
1025;DHT22;501;48.214;11.350;2023-12-07T20:19:38;-1.30;43.60
1025;DHT22;501;48.214;11.350;2023-12-07T20:22:04;-1.30;43.70
1025;DHT22;501;48.214;11.350;2023-12-07T20:24:39;-1.40;43.70
1025;DHT22;501;48.214;11.350;2023-12-07T20:27:05;-1.50;43.70
1025;DHT22;501;48.214;11.350;2023-12-07T20:29:32;-1.50;43.70
1025;DHT22;501;48.214;11.350;2023-12-07T20:31:58;-1.60;43.90
1025;DHT22;501;48.214;11.350;2023-12-07T20:34:24;-1.60;44.30
1025;DHT22;501;48.214;11.350;2023-12-07T20:36:52;-1.70;44.60
1025;DHT22;501;48.214;11.350;2023-12-07T20:39:18;-1.70;45.00
1025;DHT22;501;48.214;11.350;2023-12-07T20:41:45;-1.70;45.10
1025;DHT22;501;48.214;11.350;2023-12-07T20:44:10;-1.80;45.10